createdAt,value
2019-01-18T00:07:48.675Z,97833.47
2019-01-18T00:12:48.320Z,97825.56
2019-01-18T00:16:54.011Z,97831.95
2019-01-18T00:20:59.695Z,97831.94
2019-01-18T00:29:51.922Z,97829.23
2019-01-18T00:33:57.588Z,97841.75
2019-01-18T00:38:03.284Z,97840.19
2019-01-18T00:42:09.046Z,97851.16
2019-01-18T00:46:32.559Z,97853.84
2019-01-18T00:50:38.246Z,97848.08
2019-01-18T00:54:43.925Z,97863.07
2019-01-18T00:58:49.611Z,97870.76
2019-01-18T01:02:55.605Z,97882.70
2019-01-18T01:07:01.300Z,97889.23
2019-01-18T01:11:07.036Z,97895.37
2019-01-18T01:15:16.420Z,97909.22
2019-01-18T01:19:22.094Z,97904.97
2019-01-18T01:23:27.808Z,97904.00
2019-01-18T01:27:33.492Z,97908.45
2019-01-18T01:31:39.159Z,97915.39
2019-01-18T01:35:44.842Z,97921.94
2019-01-18T01:39:50.527Z,97922.70
2019-01-18T01:43:56.258Z,97936.34
2019-01-18T01:48:01.993Z,97942.69
2019-01-18T01:52:07.650Z,97949.25
2019-01-18T01:56:13.339Z,97952.30
2019-01-18T02:00:23.105Z,97948.94
2019-01-18T02:04:28.783Z,97950.23
2019-01-18T02:08:49.565Z,97956.80
2019-01-18T02:12:55.320Z,97960.29
2019-01-18T02:17:01.003Z,97959.71
2019-01-18T02:21:06.827Z,97968.02
2019-01-18T02:25:12.812Z,97969.61
2019-01-18T02:29:18.473Z,97981.56
2019-01-18T02:33:24.160Z,97981.17
2019-01-18T02:37:29.957Z,97991.95
2019-01-18T02:41:35.652Z,97998.88
2019-01-18T02:45:41.336Z,97999.27
2019-01-18T02:49:47.081Z,98010.60
2019-01-18T02:53:54.603Z,98015.80
2019-01-18T02:58:00.288Z,98013.48
2019-01-18T03:02:06.359Z,98008.84
2019-01-18T03:06:12.089Z,98011.54
2019-01-18T03:10:21.984Z,98016.13
2019-01-18T03:14:27.664Z,98031.20
2019-01-18T03:18:33.351Z,98033.33
2019-01-18T03:22:39.182Z,98030.41
2019-01-18T03:26:44.903Z,98028.50
2019-01-18T03:30:50.606Z,98035.05
2019-01-18T03:34:56.268Z,98042.18
2019-01-18T03:39:01.979Z,98043.33
2019-01-18T03:43:07.669Z,98040.05
2019-01-18T03:47:13.346Z,98044.67
2019-01-18T03:51:19.031Z,98054.88
2019-01-18T03:55:25.081Z,98058.16
2019-01-18T03:59:30.773Z,98063.14
2019-01-18T04:03:36.462Z,98065.07
2019-01-18T04:18:48.406Z,98080.28
2019-01-18T04:29:48.966Z,98082.19
2019-01-18T04:34:47.810Z,98082.41
2019-01-18T04:39:47.255Z,98070.84
2019-01-18T05:03:50.678Z,98112.44
2019-01-18T05:13:51.867Z,98115.28
2019-01-18T05:18:51.433Z,98124.02
2019-01-18T05:49:47.243Z,98189.47
2019-01-18T06:19:46.816Z,98203.70
2019-01-18T06:34:48.672Z,98217.59
2019-01-18T06:38:54.369Z,98238.98
2019-01-18T06:59:30.125Z,98252.64
2019-01-18T07:03:50.685Z,98251.65
2019-01-18T07:08:05.662Z,98249.88
2019-01-18T07:12:11.391Z,98257.13
2019-01-18T07:16:18.033Z,98263.85
2019-01-18T07:20:23.978Z,98271.39
2019-01-18T07:24:29.657Z,98280.28
2019-01-18T07:28:35.356Z,98279.70
2019-01-18T07:32:41.066Z,98285.42
2019-01-18T07:36:46.785Z,98288.52
2019-01-18T07:40:52.555Z,98302.02
2019-01-18T07:44:58.224Z,98300.27
2019-01-18T07:49:04.008Z,98315.68
2019-01-18T07:53:09.820Z,98317.63
2019-01-18T07:57:15.489Z,98324.95
2019-01-18T08:01:22.252Z,98332.06
2019-01-18T08:05:29.549Z,98340.63
2019-01-18T08:09:35.229Z,98338.78
2019-01-18T08:13:40.955Z,98338.52
2019-01-18T08:17:46.775Z,98343.69
2019-01-18T08:21:52.459Z,98354.53
2019-01-18T08:25:58.150Z,98353.42
2019-01-18T08:30:05.518Z,98360.13
2019-01-18T08:34:11.206Z,98370.11
2019-01-18T08:38:16.895Z,98365.31
2019-01-18T08:42:22.653Z,98367.11
2019-01-18T08:46:28.336Z,98368.72
2019-01-18T08:50:34.164Z,98373.43
2019-01-18T08:54:39.841Z,98379.45
2019-01-18T08:58:45.512Z,98385.29
2019-01-18T09:02:51.208Z,98390.14
2019-01-18T09:06:56.893Z,98393.61
2019-01-18T09:11:02.652Z,98393.42
2019-01-18T09:15:11.822Z,98391.31
2019-01-18T09:19:17.506Z,98399.61
2019-01-18T09:23:23.189Z,98401.19
2019-01-18T09:27:28.916Z,98420.12
2019-01-18T09:31:34.745Z,98416.66
2019-01-18T09:35:40.568Z,98415.27
2019-01-18T09:39:46.291Z,98421.66
2019-01-18T09:43:51.977Z,98436.08
2019-01-18T09:47:57.742Z,98433.56
2019-01-18T09:52:05.149Z,98437.02
2019-01-18T09:56:10.780Z,98435.27
2019-01-18T10:05:19.701Z,98435.91
2019-01-18T10:09:25.392Z,98436.31
2019-01-18T10:13:32.323Z,98431.50
2019-01-18T10:17:38.015Z,98433.48
2019-01-18T10:21:43.760Z,98434.27
2019-01-18T10:25:49.427Z,98438.34
2019-01-18T10:29:56.081Z,98436.17
2019-01-18T10:34:03.431Z,98425.40
2019-01-18T10:38:09.359Z,98428.88
2019-01-18T10:42:15.056Z,98421.73
2019-01-18T10:46:20.805Z,98424.81
2019-01-18T10:50:32.298Z,98433.66
2019-01-18T10:54:37.979Z,98422.44
2019-01-18T10:58:43.661Z,98421.03
2019-01-18T11:02:49.943Z,98423.91
2019-01-18T11:06:55.618Z,98417.89
2019-01-18T11:11:01.307Z,98416.94
2019-01-18T11:15:11.395Z,98413.47
2019-01-18T11:19:17.138Z,98418.52
2019-01-18T11:23:22.799Z,98421.86
2019-01-18T11:27:28.527Z,98425.14
2019-01-18T11:31:34.191Z,98406.17
2019-01-18T11:35:39.938Z,98410.05
2019-01-18T11:39:45.701Z,98411.97
2019-01-18T11:43:51.437Z,98414.11
2019-01-18T11:47:57.209Z,98407.03
2019-01-18T11:52:02.902Z,98407.84
2019-01-18T11:56:08.658Z,98409.38
2019-01-18T12:00:26.877Z,98402.81
2019-01-18T12:04:32.598Z,98395.02
2019-01-18T12:08:41.801Z,98385.80
2019-01-18T12:12:45.730Z,98379.81
2019-01-18T12:16:51.412Z,98382.91
2019-01-18T12:20:57.093Z,98379.82
2019-01-18T12:25:02.754Z,98379.46
2019-01-18T12:29:08.658Z,98376.65
2019-01-18T12:33:14.356Z,98378.98
2019-01-18T12:37:20.048Z,98364.83
2019-01-18T12:41:25.766Z,98370.75
2019-01-18T12:45:49.202Z,98367.52
2019-01-18T12:49:54.892Z,98366.77
2019-01-18T12:54:00.572Z,98362.95
2019-01-18T12:58:06.395Z,98368.41
2019-01-18T13:02:12.166Z,98372.48
2019-01-18T13:06:17.912Z,98370.37
2019-01-18T13:10:23.622Z,98373.48
2019-01-18T13:14:29.311Z,98381.92
2019-01-18T13:18:35.069Z,98375.89
2019-01-18T13:22:40.757Z,98375.04
2019-01-18T13:26:46.488Z,98374.32
2019-01-18T13:30:52.246Z,98378.63
2019-01-18T13:34:57.937Z,98379.98
2019-01-18T13:39:05.366Z,98379.06
2019-01-18T13:43:11.006Z,98377.18
2019-01-18T13:47:18.551Z,98376.95
2019-01-18T13:51:24.068Z,98379.44
2019-01-18T13:55:31.397Z,98377.59
2019-01-18T13:59:37.073Z,98379.53
2019-01-18T14:03:42.747Z,98382.05
2019-01-18T14:07:53.258Z,98381.11
2019-01-18T14:11:56.120Z,98383.86
2019-01-18T14:16:01.943Z,98385.23
2019-01-18T14:20:14.751Z,98385.46
2019-01-18T14:24:20.433Z,98391.44
2019-01-18T14:28:26.144Z,98389.33
2019-01-18T14:32:32.188Z,98382.17
2019-01-18T14:36:38.169Z,98387.38
2019-01-18T14:40:43.898Z,98383.91
2019-01-18T14:44:49.616Z,98378.30
2019-01-18T14:48:55.262Z,98380.23
2019-01-18T14:53:01.019Z,98381.39
2019-01-18T14:57:07.703Z,98387.75
2019-01-18T15:01:13.390Z,98388.71
2019-01-18T15:05:19.203Z,98385.43
2019-01-18T15:09:24.917Z,98386.78
2019-01-18T15:13:30.679Z,98385.24
2019-01-18T15:17:36.368Z,98383.89
2019-01-18T15:21:42.044Z,98395.64
2019-01-18T15:25:47.734Z,98386.98
2019-01-18T15:29:53.412Z,98388.67
2019-01-18T15:33:59.162Z,98384.44
2019-01-18T15:38:06.382Z,98386.56
2019-01-18T15:42:12.188Z,98390.39
2019-01-18T15:46:17.897Z,98384.63
2019-01-18T15:50:27.486Z,98392.54
2019-01-18T15:54:33.180Z,98386.93
2019-01-18T15:58:38.901Z,98389.62
2019-01-18T16:02:44.626Z,98389.26
2019-01-18T16:06:50.422Z,98390.02
2019-01-18T16:10:56.078Z,98388.85
2019-01-18T16:15:01.766Z,98384.41
2019-01-18T16:19:08.393Z,98386.34
2019-01-18T16:23:14.201Z,98383.77
2019-01-18T16:27:19.887Z,98382.23
2019-01-18T16:31:25.732Z,98379.34
2019-01-18T16:35:31.473Z,98379.08
2019-01-18T16:39:37.403Z,98379.84
2019-01-18T16:43:43.084Z,98380.17
2019-01-18T16:47:48.783Z,98379.88
2019-01-18T16:51:54.475Z,98372.84
2019-01-18T16:56:00.167Z,98367.28
2019-01-18T17:00:29.285Z,98369.38
2019-01-18T17:04:34.968Z,98364.18
2019-01-18T17:08:40.653Z,98369.42
2019-01-18T17:12:46.582Z,98364.78
2019-01-18T17:16:52.281Z,98368.45
2019-01-18T17:20:58.114Z,98368.82
2019-01-18T17:25:03.850Z,98362.06
2019-01-18T17:29:12.071Z,98350.88
2019-01-18T17:33:17.896Z,98354.00
2019-01-18T17:37:24.138Z,98355.32
2019-01-18T17:41:58.128Z,98349.69
2019-01-18T17:46:11.090Z,98355.43
2019-01-18T17:50:55.318Z,98355.78
2019-01-18T17:55:08.285Z,98359.05
2019-01-18T17:59:42.369Z,98360.38
2019-01-18T18:03:58.437Z,98355.75
2019-01-18T18:08:23.193Z,98358.45
2019-01-18T18:12:48.532Z,98359.80
2019-01-18T18:17:07.923Z,98361.90
2019-01-18T18:21:48.871Z,98360.34
2019-01-18T18:26:04.694Z,98350.71
2019-01-18T18:30:44.863Z,98353.22
2019-01-18T18:35:17.701Z,98347.83
2019-01-18T18:40:00.978Z,98344.23
2019-01-18T18:44:45.328Z,98338.50
2019-01-18T18:49:01.512Z,98341.52
2019-01-18T18:53:43.321Z,98337.79
2019-01-18T18:58:20.152Z,98336.86
2019-01-18T19:02:57.510Z,98331.19
2019-01-18T19:07:19.013Z,98332.87
2019-01-18T19:11:40.934Z,98321.11
2019-01-18T19:16:31.631Z,98318.63
2019-01-18T19:21:13.177Z,98317.39
2019-01-18T19:25:37.461Z,98308.91
2019-01-18T19:30:13.086Z,98314.28
2019-01-18T19:34:31.931Z,98315.41
2019-01-18T19:38:45.126Z,98307.31
2019-01-18T19:43:10.101Z,98308.07
2019-01-18T19:47:26.088Z,98305.14
2019-01-18T19:51:42.343Z,98305.12
2019-01-18T19:55:58.305Z,98304.14
2019-01-18T20:00:26.029Z,98293.95
2019-01-18T20:04:53.632Z,98296.63
2019-01-18T20:09:21.786Z,98294.86
2019-01-18T20:14:00.416Z,98299.67
2019-01-18T20:18:16.366Z,98296.98
2019-01-18T20:22:45.561Z,98299.66
2019-01-18T20:27:24.065Z,98298.88
2019-01-18T20:31:47.136Z,98298.66
2019-01-18T20:36:15.057Z,98298.53
2019-01-18T20:40:34.447Z,98301.93
2019-01-18T20:44:47.191Z,98296.69
2019-01-18T20:49:22.526Z,98291.46
2019-01-18T20:54:00.571Z,98295.09
2019-01-18T20:58:33.302Z,98298.16
2019-01-18T21:02:48.911Z,98296.16
2019-01-18T21:07:19.287Z,98297.47
2019-01-18T21:11:35.198Z,98293.94
2019-01-18T21:16:01.367Z,98297.55
2019-01-18T21:20:38.627Z,98299.04
2019-01-18T21:24:51.594Z,98294.81
2019-01-18T21:29:10.104Z,98306.33
2019-01-18T21:33:44.240Z,98298.59
2019-01-18T21:37:57.092Z,98300.44
2019-01-18T21:42:27.913Z,98303.13
2019-01-18T21:46:49.747Z,98303.81
2019-01-18T21:51:41.800Z,98300.44
2019-01-18T21:56:01.014Z,98299.28
2019-01-18T22:00:36.916Z,98303.08
2019-01-18T22:04:49.873Z,98299.56
2019-01-18T22:09:08.886Z,98308.84
2019-01-18T22:13:30.542Z,98305.02
2019-01-18T22:17:52.576Z,98302.05
2019-01-18T22:22:23.475Z,98304.57
2019-01-18T22:26:45.118Z,98304.98
2019-01-18T22:31:20.379Z,98303.22
2019-01-18T22:35:42.418Z,98301.42
2019-01-18T22:40:07.212Z,98302.75
2019-01-18T22:44:21.652Z,98305.36
2019-01-18T22:48:35.790Z,98309.12
2019-01-18T22:52:57.850Z,98308.92
2019-01-18T22:57:40.862Z,98306.98
2019-01-18T23:02:03.092Z,98305.25
2019-01-18T23:06:41.611Z,98304.06
2019-01-18T23:11:03.422Z,98298.11
2019-01-18T23:15:30.064Z,98287.27
2019-01-18T23:19:45.970Z,98289.91
2019-01-18T23:24:10.788Z,98282.63
2019-01-18T23:28:32.729Z,98283.63
2019-01-18T23:32:51.552Z,98282.83
2019-01-18T23:37:24.206Z,98277.17
2019-01-18T23:41:52.160Z,98276.31
2019-01-18T23:46:04.989Z,98273.53
2019-01-18T23:50:31.766Z,98265.69
2019-01-18T23:54:56.740Z,98264.41
2019-01-18T23:59:28.983Z,98260.50
